createdAt,value
2019-01-29T00:04:52.548Z,1.40
2019-01-29T00:09:58.931Z,1.40
2019-01-29T00:15:06.646Z,1.40
2019-01-29T00:20:13.028Z,1.30
2019-01-29T00:25:19.305Z,1.30
2019-01-29T00:30:25.595Z,1.30
2019-01-29T00:35:31.903Z,1.30
2019-01-29T00:45:49.626Z,1.30
2019-01-29T00:50:55.868Z,1.30
2019-01-29T00:56:02.137Z,1.30
2019-01-29T01:01:08.485Z,1.20
2019-01-29T01:06:14.792Z,1.20
2019-01-29T01:11:20.977Z,1.20
2019-01-29T01:16:27.201Z,1.20
2019-01-29T01:21:33.490Z,1.20
2019-01-29T01:26:39.908Z,1.10
2019-01-29T01:31:46.282Z,1.20
2019-01-29T01:36:52.602Z,1.10
2019-01-29T01:41:58.948Z,1.10
2019-01-29T01:47:05.650Z,1.10
2019-01-29T01:52:11.960Z,1.10
2019-01-29T01:57:18.164Z,1.10
2019-01-29T02:02:24.403Z,1.00
2019-01-29T02:07:30.746Z,1.00
2019-01-29T02:12:37.017Z,1.00
2019-01-29T02:17:43.478Z,1.10
2019-01-29T02:22:49.913Z,1.10
2019-01-29T02:27:56.297Z,1.10
2019-01-29T02:33:02.638Z,1.20
2019-01-29T02:38:08.871Z,1.10
2019-01-29T02:43:15.160Z,1.10
2019-01-29T02:48:21.405Z,1.00
2019-01-29T02:53:27.734Z,1.00
2019-01-29T02:58:33.992Z,0.90
2019-01-29T03:03:40.315Z,0.90
2019-01-29T03:08:46.636Z,0.90
2019-01-29T03:13:52.856Z,0.90
2019-01-29T03:18:59.040Z,0.80
2019-01-29T03:24:05.595Z,0.70
2019-01-29T03:29:11.874Z,0.70
2019-01-29T03:34:18.177Z,0.70
2019-01-29T03:39:24.405Z,0.60
2019-01-29T03:44:30.654Z,0.60
2019-01-29T03:49:36.937Z,0.60
2019-01-29T03:54:43.253Z,0.60
2019-01-29T03:59:49.497Z,0.50
2019-01-29T04:04:55.775Z,0.50
2019-01-29T04:10:02.087Z,0.60
2019-01-29T04:15:10.844Z,0.60
2019-01-29T04:20:19.038Z,0.60
2019-01-29T04:25:25.329Z,0.60
2019-01-29T04:30:31.536Z,0.60
2019-01-29T04:35:37.791Z,0.60
2019-01-29T04:40:44.025Z,0.60
2019-01-29T04:45:50.360Z,0.50
2019-01-29T04:50:56.712Z,0.50
2019-01-29T04:56:03.116Z,0.50
2019-01-29T05:01:24.594Z,0.50
2019-01-29T05:06:30.871Z,0.50
2019-01-29T05:11:37.100Z,0.60
2019-01-29T05:16:43.407Z,0.70
2019-01-29T05:21:49.699Z,0.70
2019-01-29T05:26:55.892Z,0.70
2019-01-29T05:32:02.141Z,0.80
2019-01-29T05:37:08.466Z,0.80
2019-01-29T05:42:14.865Z,0.80
2019-01-29T05:47:21.127Z,0.80
2019-01-29T05:52:27.448Z,0.80
2019-01-29T05:57:33.784Z,0.80
2019-01-29T06:02:40.047Z,0.70
2019-01-29T06:07:46.261Z,0.70
2019-01-29T06:12:52.528Z,0.60
2019-01-29T06:17:58.915Z,0.60
2019-01-29T06:23:05.607Z,0.60
2019-01-29T06:28:11.928Z,0.60
2019-01-29T06:33:18.250Z,0.60
2019-01-29T06:38:24.747Z,0.50
2019-01-29T06:43:31.082Z,0.60
2019-01-29T06:48:37.401Z,0.60
2019-01-29T06:53:43.755Z,0.60
2019-01-29T06:58:50.099Z,0.60
2019-01-29T07:03:56.443Z,0.60
2019-01-29T07:09:02.882Z,0.70
2019-01-29T07:14:09.193Z,0.70
2019-01-29T07:19:19.705Z,0.80
2019-01-29T07:24:25.951Z,0.80
2019-01-29T07:29:32.317Z,0.80
2019-01-29T07:34:38.571Z,0.90
2019-01-29T07:39:44.828Z,0.90
2019-01-29T07:44:51.070Z,0.90
2019-01-29T07:49:57.414Z,0.90
2019-01-29T07:55:03.808Z,0.90
2019-01-29T08:00:11.073Z,1.10
2019-01-29T08:05:17.446Z,1.10
2019-01-29T08:10:24.708Z,1.20
2019-01-29T08:15:31.218Z,1.20
2019-01-29T08:20:37.481Z,1.30
2019-01-29T08:25:47.934Z,1.30
2019-01-29T08:30:51.654Z,1.30
2019-01-29T08:35:57.885Z,1.40
2019-01-29T08:41:04.533Z,1.50
2019-01-29T08:46:11.265Z,1.60
2019-01-29T08:51:17.547Z,1.60
2019-01-29T08:56:23.781Z,1.60
2019-01-29T09:01:30.063Z,1.80
2019-01-29T09:06:36.296Z,1.70
2019-01-29T09:11:42.502Z,1.80
2019-01-29T09:16:48.816Z,1.90
2019-01-29T09:21:55.070Z,1.90
2019-01-29T09:27:01.308Z,2.00
2019-01-29T09:32:07.686Z,2.30
2019-01-29T09:37:22.620Z,3.20
2019-01-29T09:42:28.903Z,3.70
2019-01-29T09:47:36.799Z,4.20
2019-01-29T09:52:43.171Z,4.10
2019-01-29T09:58:02.584Z,4.40
2019-01-29T10:03:09.127Z,4.60
2019-01-29T10:08:15.465Z,4.30
2019-01-29T10:13:21.818Z,3.90
2019-01-29T10:18:28.075Z,4.00
2019-01-29T10:23:34.360Z,4.60
2019-01-29T10:28:40.650Z,4.10
2019-01-29T10:33:47.090Z,4.50
2019-01-29T10:38:53.345Z,4.40
2019-01-29T10:43:59.593Z,4.80
2019-01-29T10:49:06.268Z,5.20
2019-01-29T10:54:14.176Z,5.20
2019-01-29T10:59:21.731Z,5.80
2019-01-29T11:04:28.031Z,5.60
2019-01-29T11:09:34.346Z,6.00
2019-01-29T11:14:40.693Z,5.70
2019-01-29T11:19:47.100Z,5.40
2019-01-29T11:24:53.455Z,5.60
2019-01-29T11:29:59.765Z,5.80
2019-01-29T11:35:06.640Z,6.20
2019-01-29T11:40:16.958Z,5.90
2019-01-29T11:45:31.586Z,6.10
2019-01-29T11:50:37.823Z,5.80
2019-01-29T11:55:44.176Z,5.50
2019-01-29T12:00:55.143Z,5.00
2019-01-29T12:06:01.434Z,4.70
2019-01-29T12:11:08.151Z,4.90
2019-01-29T12:16:14.539Z,5.00
2019-01-29T12:21:20.852Z,5.00
2019-01-29T12:26:27.123Z,4.90
2019-01-29T12:31:33.503Z,5.00
2019-01-29T12:36:39.771Z,4.90
2019-01-29T12:41:46.040Z,4.80
2019-01-29T12:46:52.291Z,4.80
2019-01-29T12:52:06.881Z,4.70
2019-01-29T12:57:13.132Z,4.70
2019-01-29T13:02:19.439Z,4.90
2019-01-29T13:07:25.848Z,5.30
2019-01-29T13:12:33.092Z,5.00
2019-01-29T13:17:39.412Z,5.10
2019-01-29T13:22:45.731Z,5.10
2019-01-29T13:27:52.060Z,5.10
2019-01-29T13:32:58.348Z,5.10
2019-01-29T13:38:06.165Z,5.20
2019-01-29T13:43:12.462Z,5.20
2019-01-29T13:48:18.929Z,5.30
2019-01-29T13:53:25.202Z,5.50
2019-01-29T13:58:31.455Z,5.40
2019-01-29T14:03:37.712Z,5.30
2019-01-29T14:08:43.943Z,5.20
2019-01-29T14:13:50.299Z,5.00
2019-01-29T14:18:56.513Z,5.00
2019-01-29T14:24:02.799Z,5.00
2019-01-29T14:29:09.128Z,4.80
2019-01-29T14:34:15.377Z,4.80
2019-01-29T14:40:02.885Z,4.90
2019-01-29T14:45:17.452Z,4.90
2019-01-29T14:50:24.573Z,4.90
2019-01-29T14:55:30.810Z,4.70
2019-01-29T15:00:37.660Z,4.70
2019-01-29T15:05:43.896Z,4.70
2019-01-29T15:10:50.264Z,4.60
2019-01-29T15:16:01.377Z,4.60
2019-01-29T15:21:07.567Z,4.50
2019-01-29T15:26:13.803Z,4.40
2019-01-29T15:31:20.015Z,4.40
2019-01-29T15:36:26.416Z,4.40
2019-01-29T15:41:33.733Z,4.20
2019-01-29T15:46:40.036Z,4.20
2019-01-29T15:51:46.354Z,4.20
2019-01-29T15:56:52.986Z,4.10
2019-01-29T16:01:59.330Z,4.10
2019-01-29T16:07:05.806Z,4.00
2019-01-29T16:12:12.115Z,4.00
2019-01-29T16:17:18.439Z,3.90
2019-01-29T16:22:24.762Z,3.80
2019-01-29T16:27:31.033Z,3.70
2019-01-29T16:32:37.416Z,3.70
2019-01-29T16:37:43.739Z,3.60
2019-01-29T16:42:50.057Z,3.50
2019-01-29T16:47:56.574Z,3.50
2019-01-29T16:53:02.817Z,3.40
2019-01-29T16:58:09.305Z,3.30
2019-01-29T17:03:15.559Z,3.20
2019-01-29T17:08:21.944Z,3.10
2019-01-29T17:13:28.512Z,2.90
2019-01-29T17:18:34.788Z,2.90
2019-01-29T17:23:41.092Z,2.80
2019-01-29T17:28:47.339Z,2.70
2019-01-29T17:33:53.890Z,2.70
2019-01-29T17:39:00.215Z,2.70
2019-01-29T17:44:06.691Z,2.60
2019-01-29T17:49:13.013Z,2.60
2019-01-29T17:54:19.337Z,2.60
2019-01-29T17:59:25.713Z,2.60
2019-01-29T18:04:32.057Z,2.60
2019-01-29T18:09:38.297Z,2.30
2019-01-29T18:14:44.639Z,2.40
2019-01-29T18:19:50.821Z,2.30
2019-01-29T18:24:57.132Z,2.30
2019-01-29T18:30:03.405Z,2.30
2019-01-29T18:35:10.022Z,2.30
2019-01-29T18:40:18.888Z,2.20
2019-01-29T18:45:25.220Z,2.20
2019-01-29T18:50:31.580Z,2.10
2019-01-29T18:55:37.925Z,2.10
2019-01-29T19:00:54.028Z,1.90
2019-01-29T19:05:52.186Z,1.90
2019-01-29T19:10:58.481Z,1.80
2019-01-29T19:16:04.783Z,1.80
2019-01-29T19:21:11.015Z,1.80
2019-01-29T19:26:17.266Z,1.80
2019-01-29T19:31:23.491Z,1.80
2019-01-29T19:36:30.784Z,1.80
2019-01-29T19:41:37.018Z,1.70
2019-01-29T19:46:43.424Z,1.80
2019-01-29T19:51:49.687Z,1.70
2019-01-29T19:56:56.053Z,1.70
2019-01-29T20:02:02.344Z,1.70
2019-01-29T20:07:08.663Z,1.80
2019-01-29T20:12:15.151Z,1.80
2019-01-29T20:17:21.516Z,1.90
2019-01-29T20:22:27.803Z,1.80
2019-01-29T20:27:35.107Z,1.80
2019-01-29T20:32:41.442Z,1.80
2019-01-29T20:37:47.840Z,1.90
2019-01-29T20:42:54.195Z,1.90
2019-01-29T20:48:00.522Z,2.00
2019-01-29T20:53:06.807Z,2.00
2019-01-29T20:58:13.167Z,2.00
2019-01-29T21:03:19.528Z,2.00
2019-01-29T21:08:25.936Z,2.00
2019-01-29T21:13:32.282Z,2.00
2019-01-29T21:18:38.625Z,2.10
2019-01-29T21:23:45.021Z,2.00
2019-01-29T21:28:51.355Z,2.00
2019-01-29T21:33:57.685Z,2.00
2019-01-29T21:39:08.976Z,1.90
2019-01-29T21:44:15.312Z,1.90
2019-01-29T21:49:21.659Z,1.90
2019-01-29T21:54:28.010Z,1.80
2019-01-29T21:59:34.386Z,1.80
2019-01-29T22:04:40.615Z,1.80
2019-01-29T22:09:47.042Z,1.70
2019-01-29T22:14:53.371Z,1.70
2019-01-29T22:19:59.774Z,1.60
2019-01-29T22:25:07.984Z,1.60
2019-01-29T22:30:28.533Z,1.60
2019-01-29T22:35:34.779Z,1.50
2019-01-29T22:40:41.026Z,1.50
2019-01-29T22:45:47.332Z,1.40
2019-01-29T22:50:53.641Z,1.40
2019-01-29T22:55:59.955Z,1.40
2019-01-29T23:01:30.794Z,1.50
2019-01-29T23:06:52.148Z,1.50
2019-01-29T23:11:58.483Z,1.40
2019-01-29T23:17:05.650Z,1.40
2019-01-29T23:22:11.885Z,1.40
2019-01-29T23:27:18.150Z,1.40
2019-01-29T23:32:24.381Z,1.40
2019-01-29T23:37:30.958Z,1.40
2019-01-29T23:42:37.185Z,1.40
2019-01-29T23:47:43.458Z,1.40
2019-01-29T23:52:49.737Z,1.40
2019-01-29T23:57:56.360Z,1.30
